Airfield :
LOGIN :

Register | Disclaimer

   EN    FR    IT 

 










Legend :    VFR   Marginal VFR   IFR   Intensive IFR   Very Intensive IFR
Visi :
Ceiling :
>= 8 km
>= 3000ft
5 to 8 km
1000 to 3000 ft
1500m to 5 km
500 to 1000 ft
800 to 1500m
200 to 500 ft
< 800m
< 200 ft
Symbols :   Thunderstorms  Fog  Heavy snow  Heavy precipitations  Wind > 20 kt
SIGMETs :     Misc.  Thunderstorms  Icing  Turbulence  Mountain Waves  Volcanic Ashes






- Airport Elevation : 16 ft
- IATA code : EAS


LESO - San Sebastian Fuenterrabia

CURRENT METAR :
  • 021230Z 03004KT 350V060 9999 FEW020 09/05 Q1016

EXPIRED METARs :
  • 021200Z 36003KT 320V080 9999 FEW020 09/05 Q1016
  • 021130Z VRB01KT CAVOK 09/05 Q1017
  • 021100Z VRB02KT CAVOK 08/04 Q1017
  • 021030Z VRB01KT CAVOK 07/04 Q1018
  • 021000Z VRB02KT CAVOK 06/04 Q1018
  • 020930Z 15003KT CAVOK 06/04 Q1018

TAF TAF LESO
Valid from the 02 at 12:00 until the 03 at 12:00 UTC


021100Z 0212/0312 03009KT 9999 FEW040 TX09/0214Z TN04/0221Z
PROB30
TEMPO 0303/0312 3000 RA BKN010
PROB30
TEMPO 0306/0312 1500 SHRA SCT035TCU



MET'MAP, your aeronautical weather chart ! - Copyright ORBIFLY December 2007 - Disclaimer

ORBIFLY MET'MAP TEAM :

Programming & Development : Alexandra Zaïnal
Original concept : Baudouin d'Aumeries
Technical & hardware support : Manuel Goepfert
Assistance : Marc-Olivier Méhu




SOURCES & CREDITS :

   NOAA